Flight Track Log - Related Links

Times and Time Zones

All times are in EDT time to prevent confusion due to time zone crossing. See the AAL1714 flight status page for this flight to view local times or setup timezone preferences in your user account.

Time Position Orientation Groundspeed Altitude Reporting Facility
EDT Latitude Longitude Course Direction KTS MPH feet Rate Location/Type
Thu 06:45:40 PM 33.9342 -118.4442 59° Northeast 163 188 1,600  Level Los Angeles Center
Thu 06:46:42 PM 33.9147 -118.5208 253° West 233 268 3,000 2,032 Climbing Los Angeles Center
Thu 06:47:44 PM 33.8736 -118.5942 236° Southwest 274 315 5,800 2,419 Climbing Los Angeles Center
Thu 06:48:00 PM 34.1429 -118.0476 59° Northeast  Level FlightAware Approximate
Thu 06:48:46 PM 33.8194 -118.5519 147° Southeast 287 330 8,000  Level Los Angeles Center
Thu 06:49:00 PM 34.1952 -117.9429 59° Northeast  Level FlightAware Approximate
Thu 06:49:48 PM 33.8806 -118.4706 48° Northeast 308 354 11,000  Level Los Angeles Center
Thu 06:50:00 PM 34.2556 -117.8554 59° Northeast  Level FlightAware Approximate
Thu 06:50:50 PM 33.9575 -118.3931 40° Northeast 351 404 13,600  Level Los Angeles Center
Thu 06:51:52 PM 34.0150 -118.2889 56° Northeast 369 425 16,000 2,448 Climbing Los Angeles Center
Thu 06:52:55 PM 34.0778 -118.1769 56° Northeast 395 455 18,700 2,496 Climbing Los Angeles Center
Thu 06:53:57 PM 34.1444 -118.0611 55° Northeast 413 475 21,200 2,371 Climbing Los Angeles Center
Thu 06:54:59 PM 34.2125 -117.9400 56° Northeast 427 491 23,600 2,081 Climbing Los Angeles Center
Thu 06:56:01 PM 34.2814 -117.8172 56° Northeast 438 504 25,500 1,645 Climbing Los Angeles Center
Thu 06:57:03 PM 34.3672 -117.6619 56° Northeast 458 527 27,000 726 Climbing Los Angeles Center
Thu 06:58:05 PM 34.4303 -117.5472 56° Northeast 474 545 27,000  Level Los Angeles Center
Thu 06:59:08 PM 34.5189 -117.3872 56° Northeast 480 552 27,000  Level Los Angeles Center
Thu 07:00:10 PM 34.5914 -117.2544 56° Northeast 478 550 27,000  Level Los Angeles Center
Thu 07:01:12 PM 34.6664 -117.1192 56° Northeast 485 558 27,000  Level Los Angeles Center
Thu 07:02:14 PM 34.7397 -116.9839 57° Northeast 483 556 27,000  Level Los Angeles Center
Thu 07:03:16 PM 34.8131 -116.8483 57° Northeast 483 556 27,000  Level Los Angeles Center
Thu 07:04:18 PM 34.9014 -116.6858 56° Northeast 482 555 27,000 -336 Level Los Angeles Center
Thu 07:05:21 PM 34.9764 -116.5550 55° Northeast 478 550 26,300 -960 Descending Los Angeles Center
Thu 07:06:23 PM 35.0619 -116.4514 45° Northeast 453 521 25,000 -1,500 Descending Los Angeles Center
Thu 07:07:25 PM 35.1422 -116.3497 46° Northeast 427 491 23,200 -1,597 Descending Los Angeles Center
Thu 07:08:27 PM 35.2219 -116.2511 45° Northeast 413 475 21,700 -1,548 Descending Los Angeles Center
Thu 07:09:29 PM 35.3108 -116.1389 46° Northeast 387 445 20,000 -1,500 Descending Los Angeles Center
Thu 07:10:31 PM 35.3842 -116.0461 46° Northeast 380 437 18,600 -1,500 Descending Los Angeles Center
Thu 07:11:21 PM 35.4436 -115.9706 46° Northeast 375 432 17,200 -1,565 Descending Los Angeles Center
Thu 07:12:03 PM 35.4967 -115.9064 45° Northeast 371 427 16,200 -1,135 Descending Los Angeles Center
Thu 07:12:35 PM 35.5211 -115.8744 47° Northeast 357 411 15,800 -1,254 Descending Los Angeles Center
Thu 07:13:10 PM 35.5644 -115.8189 46° Northeast 330 380 14,800 -1,645 Descending Los Angeles Center
Thu 07:13:37 PM 35.5944 -115.7789 47° Northeast 327 376 14,100 -1,475 Descending Los Angeles Center
Thu 07:14:11 PM 35.6258 -115.7439 42° Northeast 312 359 13,300 -1,161 Descending Los Angeles Center
Thu 07:14:39 PM 35.6539 -115.7044 49° Northeast 312 359 12,900 -400 Descending Los Angeles Center
Thu 07:15:11 PM 35.6886 -115.6631 44° Northeast 299 344 12,900  Level Los Angeles Center
Thu 07:15:42 PM 35.7117 -115.6311 48° Northeast 302 348 12,900 107 Level Los Angeles Center
Thu 07:16:07 PM 35.7411 -115.5958 44° Northeast 303 349 13,000  Climbing Los Angeles Center
Thu 07:16:44 PM 35.7886 -115.5719 22° Northeast 300 345 12,900 -100 Descending Los Angeles Center
Thu 07:17:07 PM 35.8181 -115.5736 357° North 293 337 12,900  Level Los Angeles Center
Thu 07:17:46 PM 35.8650 -115.5692 North 273 314 12,900  Level Los Angeles Center
Thu 07:18:08 PM 35.8906 -115.5686 North 255 293 12,900  Level Los Angeles Center
Thu 07:18:48 PM 35.9303 -115.5378 32° Northeast 252 290 12,900 -295 Level Los Angeles Center
Thu 07:19:09 PM 35.9456 -115.5139 52° Northeast 268 308 12,600 -774 Descending Los Angeles Center
Thu 07:19:50 PM 35.9753 -115.4675 52° Northeast 257 296 12,100 -885 Descending Los Angeles Center
Thu 07:20:10 PM 35.9903 -115.4408 55° Northeast 261 300 11,700 -871 Descending Los Angeles Center
Thu 07:20:52 PM 36.0172 -115.3967 53° Northeast 257 296 11,200 -896 Descending Los Angeles Center
Thu 07:21:17 PM 36.0289 -115.3592 69° East 259 298 10,700 -968 Descending Los Angeles Center
Thu 07:21:54 PM 36.0256 -115.3114 95° East 267 307 10,200 -984 Descending Los Angeles Center
Thu 07:22:18 PM 36.0217 -115.2658 96° East 259 298 9,700 -968 Descending Los Angeles Center
Thu 07:22:56 PM 36.0194 -115.2242 94° East 260 299 9,200 -984 Descending Los Angeles Center
Thu 07:23:19 PM 36.0161 -115.1800 95° East 253 291 8,700 -968 Descending Los Angeles Center
Thu 07:23:58 PM 36.0128 -115.1222 94° East 253 291 8,200 -689 Descending Los Angeles Center
Thu 07:24:20 PM 36.0103 -115.0942 96° East 247 284 8,000 -571 Descending Los Angeles Center
Thu 07:25:01 PM 36.0081 -115.0414 93° East 243 280 7,600 -787 Descending Los Angeles Center
Thu 07:25:21 PM 36.0067 -115.0183 94° East 215 247 7,200 -1,161 Descending Los Angeles Center
Thu 07:26:03 PM 36.0050 -114.9700 92° East 226 260 6,400 -1,143 Descending Los Angeles Center

Login

Don't have an account? Register now (free) for customized features, flight alerts, and more!